Aviation Digital Data Service (ADDS)

Output produced by TAFs form (0749 UTC 23 April 2018)
found at http://aviationweather.gov/adds/tafs/
 
METAR text: RJTT 230730Z 08013KT 9999 FEW015 BKN020 17/14 Q1020 NOSIG RMK 1CU015 7SC020 A3012
Conditions at: RJTT (TOKYO INTL AIRPO, JP) observed 0730 UTC 23 April 2018
Temperature: 17.0°C (63°F)
Dewpoint: 14.0°C (57°F) [RH = 82%]
Pressure (altimeter): 30.12 inches Hg (1020.0 mb)
Winds: from the E (80 degrees) at 15 MPH (13 knots; 6.8 m/s)
Visibility: 6 or more miles (10+ km)
Ceiling: 2000 feet AGL
Clouds: few clouds at 1500 feet AGL
broken clouds at 2000 feet AGL
Weather: no significant weather observed at this time

Forecast for: RJTT (TOKYO INTL AIRPO, JP)
Text: TAF RJTT 230506Z 2306/2412 08014KT 8000 FEW008 BKN015
Forecast period: 0600 to 1500 UTC 23 April 2018
Forecast type: FROM: standard forecast or significant change
Winds: from the E (80 degrees) at 16 MPH (14 knots; 7.3 m/s)
Visibility: 5 miles (8 km)
Ceiling: 1500 feet AGL
Clouds: few clouds at 800 feet AGL
broken clouds at 1500 feet AGL
Weather: no significant weather forecast for this period
Forecast for: RJTT (TOKYO INTL AIRPO, JP)
Text: TAF RJTT 230506Z 2306/2412 08014KT 8000 FEW008 BKN015
Forecast period: 0600 to 1500 UTC 23 April 2018
Forecast type: FROM: standard forecast or significant change
Winds: from the E (80 degrees) at 16 MPH (14 knots; 7.3 m/s)
Visibility: 5 miles (8 km)
Ceiling: 1500 feet AGL
Clouds: few clouds at 800 feet AGL
broken clouds at 1500 feet AGL
Weather: no significant weather forecast for this period
Forecast for: RJTT (TOKYO INTL AIRPO, JP)
Text: TAF RJTT 230506Z 2306/2412 08014KT 8000 FEW008 BKN015
Forecast period: 0900 to 1200 UTC 23 April 2018
Forecast type: TEMPORARY: The following changes expected for less than half the time period
Ceiling: 800 feet AGL
Clouds: few clouds at 500 feet AGL
broken clouds at 800 feet AGL
Weather: no significant weather forecast for this period
Forecast for: RJTT (TOKYO INTL AIRPO, JP)
Text: TAF RJTT 230506Z 2306/2412 08014KT 8000 FEW008 BKN015
Forecast period: 0900 to 1200 UTC 23 April 2018
Forecast type: TEMPORARY: The following changes expected for less than half the time period
Ceiling: 800 feet AGL
Clouds: few clouds at 500 feet AGL
broken clouds at 800 feet AGL
Weather: no significant weather forecast for this period
Forecast for: RJTT (TOKYO INTL AIRPO, JP)
Text: TAF RJTT 230506Z 2306/2412 08014KT 8000 FEW008 BKN015
Forecast period: 1500 UTC 23 April 2018 to 1200 UTC 24 April 2018
Forecast type: BECOMING: Conditions expected to become as follows by 1700 UTC 23 April 2018
Winds: from the S (190 degrees) at 14 MPH (12 knots; 6.2 m/s)
Visibility: 5 miles (8 km)
Ceiling: 1500 feet AGL
Clouds: few clouds at 800 feet AGL
broken clouds at 1500 feet AGL
Weather: no significant weather forecast for this period
Forecast for: RJTT (TOKYO INTL AIRPO, JP)
Text: TAF RJTT 230506Z 2306/2412 08014KT 8000 FEW008 BKN015
Forecast period: 1500 UTC 23 April 2018 to 1200 UTC 24 April 2018
Forecast type: BECOMING: Conditions expected to become as follows by 1700 UTC 23 April 2018
Winds: from the S (190 degrees) at 14 MPH (12 knots; 6.2 m/s)
Visibility: 5 miles (8 km)
Ceiling: 1500 feet AGL
Clouds: few clouds at 800 feet AGL
broken clouds at 1500 feet AGL
Weather: no significant weather forecast for this period